Time;durP1;ratioP1;P1;durP2;ratioP2;P2;SDS_P1;SDS_P2;PMS_P1;PMS_P2;Temp;Humidity;BMP_temperature;BMP_pressure;BME280_temperature;BME280_humidity;BME280_pressure;Samples;Min_cycle;Max_cycle;Signal;HPM_P1;HPM_P2
2023/05/06 00:02:18;;;;;;;15.93;15.40;;;16.60;99.90;;;;;;5073785;28;20461;-82
2023/05/06 00:04:46;;;;;;;15.70;15.20;;;16.60;99.90;;;;;;5076893;28;20476;-82
2023/05/06 00:07:15;;;;;;;15.70;15.20;;;16.60;99.90;;;;;;5075019;28;20990;-81
2023/05/06 00:09:43;;;;;;;16.17;15.67;;;16.50;99.90;;;;;;5076076;28;20510;-82
2023/05/06 00:12:13;;;;;;;17.00;15.97;;;16.50;1.00;;;;;;5059816;28;20476;-81
2023/05/06 00:14:41;;;;;;;16.20;15.40;;;16.50;1.00;;;;;;5061729;28;20463;-81
2023/05/06 00:17:09;;;;;;;15.80;15.37;;;16.50;99.90;;;;;;5059277;28;20800;-81
2023/05/06 00:19:38;;;;;;;15.40;14.90;;;16.50;99.90;;;;;;5076888;28;20463;-79
2023/05/06 00:22:06;;;;;;;15.60;14.90;;;16.50;99.90;;;;;;5076447;28;20490;-83
2023/05/06 00:24:34;;;;;;;15.43;15.03;;;16.50;99.90;;;;;;5075470;28;20503;-82
2023/05/06 00:27:02;;;;;;;15.50;15.00;;;16.50;99.90;;;;;;5078722;28;20448;-83
2023/05/06 00:29:32;;;;;;;15.57;15.00;;;16.40;99.90;;;;;;5070659;28;20456;-82
2023/05/06 00:32:00;;;;;;;16.20;15.60;;;16.40;99.90;;;;;;5077134;28;20508;-82
2023/05/06 00:34:28;;;;;;;16.00;15.57;;;16.40;99.90;;;;;;5082136;28;20452;-80
2023/05/06 00:36:56;;;;;;;16.00;15.50;;;16.30;1.00;;;;;;5076413;28;20456;-82
2023/05/06 00:39:25;;;;;;;16.27;15.73;;;16.30;1.00;;;;;;5081583;28;20467;-81
2023/05/06 00:41:53;;;;;;;15.47;15.07;;;16.30;1.00;;;;;;5080563;28;20482;-82
2023/05/06 00:44:21;;;;;;;16.40;15.77;;;16.30;1.00;;;;;;5080002;28;21871;-81
2023/05/06 00:46:51;;;;;;;15.60;15.20;;;16.20;1.00;;;;;;5079239;28;20552;-82
2023/05/06 00:49:19;;;;;;;16.20;15.70;;;16.30;1.00;;;;;;5078249;28;20449;-81
2023/05/06 00:51:48;;;;;;;16.23;15.67;;;16.30;1.00;;;;;;5080054;28;20472;-82
2023/05/06 00:54:17;;;;;;;16.30;15.80;;;16.20;32.40;;;;;;5080434;28;20450;-83
2023/05/06 00:56:45;;;;;;;16.10;15.50;;;16.10;99.90;;;;;;5076708;28;20500;-83
2023/05/06 00:59:13;;;;;;;15.80;15.40;;;16.20;99.90;;;;;;5077712;28;20810;-80
2023/05/06 01:01:41;;;;;;;15.63;15.23;;;16.20;99.90;;;;;;5076473;28;20562;-82
2023/05/06 01:04:11;;;;;;;15.93;15.33;;;16.10;1.00;;;;;;5079583;28;20567;-83
2023/05/06 01:06:45;;;;;;;16.37;15.80;;;16.20;43.00;;;;;;5078361;28;20454;-82
2023/05/06 01:09:20;;;;;;;16.33;15.50;;;16.10;1.00;;;;;;5078467;28;20500;-80
2023/05/06 01:11:52;;;;;;;16.00;15.40;;;16.20;97.30;;;;;;5081913;28;20470;-82
2023/05/06 01:14:28;;;;;;;16.30;15.70;;;16.20;1.00;;;;;;5076250;28;20456;-82
2023/05/06 01:17:03;;;;;;;16.50;15.90;;;16.10;1.00;;;;;;5080105;28;20451;-82
2023/05/06 01:19:41;;;;;;;16.00;15.50;;;16.10;34.70;;;;;;5080814;28;20542;-81
2023/05/06 01:22:11;;;;;;;16.20;15.70;;;16.10;1.00;;;;;;5074473;28;20450;-82
2023/05/06 01:24:42;;;;;;;16.43;15.83;;;16.10;99.90;;;;;;5078887;28;20455;-83
2023/05/06 01:27:11;;;;;;;16.57;15.90;;;16.10;1.00;;;;;;5077709;28;20508;-81
2023/05/06 01:29:42;;;;;;;15.97;15.40;;;16.10;1.00;;;;;;5075719;28;20446;-80
2023/05/06 01:32:22;;;;;;;16.53;15.83;;;16.10;99.90;;;;;;5076162;28;20502;-81
2023/05/06 01:34:59;;;;;;;15.60;15.10;;;16.00;1.00;;;;;;5079266;28;21008;-81
2023/05/06 01:37:34;;;;;;;16.40;15.73;;;16.00;1.00;;;;;;5081612;28;20462;-81
2023/05/06 01:40:06;;;;;;;15.83;15.33;;;16.00;1.00;;;;;;5060246;28;20449;-81
2023/05/06 01:42:36;;;;;;;15.60;15.10;;;15.90;78.80;;;;;;5080621;28;20530;-81
2023/05/06 01:45:07;;;;;;;16.03;15.53;;;15.90;31.60;;;;;;5082837;28;20449;-81
2023/05/06 01:47:36;;;;;;;15.80;15.30;;;16.00;99.90;;;;;;5080006;28;20508;-81
2023/05/06 01:50:05;;;;;;;16.50;15.90;;;16.00;99.90;;;;;;5080987;28;20452;-81
2023/05/06 01:52:34;;;;;;;16.00;15.60;;;16.00;1.00;;;;;;5080686;28;20484;-81
2023/05/06 01:55:02;;;;;;;16.13;15.50;;;16.00;1.00;;;;;;5071751;28;21059;-81
2023/05/06 01:57:31;;;;;;;16.07;15.57;;;15.90;1.00;;;;;;5080476;28;20470;-81
2023/05/06 02:00:00;;;;;;;16.50;16.00;;;15.90;1.00;;;;;;5073171;28;20576;-80
2023/05/06 02:02:28;;;;;;;16.33;15.60;;;15.90;47.90;;;;;;5077916;28;21048;-81
2023/05/06 02:04:56;;;;;;;16.10;15.50;;;16.00;1.00;;;;;;5078783;28;20452;-81
2023/05/06 02:07:24;;;;;;;16.50;16.00;;;15.90;99.90;;;;;;5081858;28;20583;-81
2023/05/06 02:09:52;;;;;;;16.07;15.57;;;15.90;1.00;;;;;;5077824;28;20466;-79
2023/05/06 02:12:20;;;;;;;16.63;15.93;;;15.90;34.80;;;;;;5078719;28;20910;-83
2023/05/06 02:14:50;;;;;;;16.70;15.90;;;16.00;1.00;;;;;;5083041;28;21207;-82
2023/05/06 02:17:18;;;;;;;16.30;15.80;;;16.00;1.00;;;;;;5076262;28;22368;-82
2023/05/06 02:19:46;;;;;;;16.90;16.30;;;16.00;99.90;;;;;;5075795;28;20823;-81
2023/05/06 02:22:14;;;;;;;16.80;16.30;;;16.00;1.00;;;;;;5063577;28;20484;-81
2023/05/06 02:24:43;;;;;;;16.53;16.00;;;15.90;99.90;;;;;;5078064;28;21083;-82
2023/05/06 02:27:11;;;;;;;16.30;15.80;;;15.90;1.00;;;;;;5079616;28;20969;-82
2023/05/06 02:29:39;;;;;;;16.33;15.77;;;15.90;1.00;;;;;;5072879;28;20466;-83
2023/05/06 02:32:09;;;;;;;16.03;15.53;;;15.90;99.90;;;;;;5076116;28;20472;-82
2023/05/06 02:34:37;;;;;;;16.10;15.70;;;15.90;99.90;;;;;;5077273;28;20480;-83
2023/05/06 02:37:05;;;;;;;16.30;15.90;;;15.90;99.90;;;;;;5076108;28;20497;-83
2023/05/06 02:39:33;;;;;;;16.03;15.53;;;15.90;99.90;;;;;;5074981;28;20451;-83
2023/05/06 02:42:02;;;;;;;16.27;15.77;;;15.90;1.00;;;;;;5076775;28;21076;-82
2023/05/06 02:44:30;;;;;;;16.37;15.87;;;15.90;1.00;;;;;;5075674;28;20446;-81
2023/05/06 02:46:58;;;;;;;16.47;15.97;;;15.90;1.00;;;;;;5075066;28;20485;-81
2023/05/06 02:49:28;;;;;;;16.17;15.67;;;15.90;99.90;;;;;;5077079;28;20450;-82
2023/05/06 02:51:56;;;;;;;16.23;15.73;;;15.90;99.90;;;;;;5074844;28;20477;-81
2023/05/06 02:54:26;;;;;;;16.23;15.63;;;15.80;99.90;;;;;;5078012;28;20468;-80
2023/05/06 02:56:54;;;;;;;16.30;15.80;;;15.80;1.00;;;;;;5078332;28;20492;-82
2023/05/06 02:59:23;;;;;;;16.00;15.60;;;15.80;1.00;;;;;;5077589;28;20986;-82
2023/05/06 03:01:51;;;;;;;16.90;16.30;;;15.80;41.20;;;;;;5072611;28;20477;-82
2023/05/06 03:04:20;;;;;;;17.20;16.60;;;15.70;99.90;;;;;;5074625;28;20458;-81
2023/05/06 03:06:50;;;;;;;16.60;16.10;;;15.70;99.90;;;;;;5077280;28;20589;-82
2023/05/06 03:09:18;;;;;;;16.87;16.30;;;15.70;1.00;;;;;;5079262;28;20464;-82
2023/05/06 03:11:46;;;;;;;16.50;15.80;;;15.70;99.90;;;;;;5080439;28;20497;-82
2023/05/06 03:14:14;;;;;;;16.77;15.97;;;15.70;1.00;;;;;;5078683;28;20477;-82
2023/05/06 03:16:42;;;;;;;16.77;16.27;;;15.70;1.00;;;;;;5078720;28;20969;-82
2023/05/06 03:19:11;;;;;;;16.30;15.70;;;15.70;44.60;;;;;;5079660;28;20944;-81
2023/05/06 03:21:39;;;;;;;16.27;15.77;;;15.70;6.90;;;;;;5074894;28;20563;-82
2023/05/06 03:24:09;;;;;;;15.90;15.50;;;15.60;1.00;;;;;;5074350;28;20963;-82
2023/05/06 03:26:37;;;;;;;16.43;16.00;;;15.70;1.00;;;;;;5077006;28;20922;-79
2023/05/06 03:29:05;;;;;;;16.27;15.77;;;15.60;1.00;;;;;;5077961;28;20929;-81
2023/05/06 03:31:33;;;;;;;16.37;15.77;;;15.60;1.00;;;;;;5077785;28;20539;-83
2023/05/06 03:34:01;;;;;;;16.37;15.87;;;15.60;99.90;;;;;;5078229;28;20478;-83
2023/05/06 03:36:30;;;;;;;15.97;15.40;;;15.60;1.00;;;;;;5078744;28;20462;-82
2023/05/06 03:38:58;;;;;;;16.47;15.90;;;15.60;99.90;;;;;;5076994;28;20537;-82
2023/05/06 03:41:28;;;;;;;16.23;15.73;;;15.60;1.00;;;;;;5077141;28;20581;-82
2023/05/06 03:43:56;;;;;;;16.53;16.03;;;15.50;99.90;;;;;;5076810;28;20458;-82
2023/05/06 03:46:24;;;;;;;16.50;16.00;;;15.50;99.90;;;;;;5076790;28;20565;-80
2023/05/06 03:48:52;;;;;;;16.40;15.83;;;15.50;99.90;;;;;;5078847;28;20516;-82
2023/05/06 03:51:20;;;;;;;17.40;16.77;;;15.50;1.00;;;;;;5073379;28;21022;-82
2023/05/06 03:53:49;;;;;;;16.83;16.33;;;15.40;99.90;;;;;;5072524;28;20478;-82
2023/05/06 03:56:21;;;;;;;16.63;16.03;;;15.40;1.00;;;;;;5073231;28;20454;-82
2023/05/06 03:58:50;;;;;;;16.60;16.10;;;15.40;99.90;;;;;;5077468;28;20482;-82
2023/05/06 04:01:18;;;;;;;17.00;16.40;;;15.40;1.00;;;;;;5075119;28;20873;-82
2023/05/06 04:03:46;;;;;;;16.83;16.30;;;15.40;99.90;;;;;;5064521;28;20454;-82
2023/05/06 04:06:15;;;;;;;17.60;16.90;;;15.30;99.90;;;;;;5078733;28;20453;-82
2023/05/06 04:08:43;;;;;;;17.00;16.50;;;15.30;60.30;;;;;;5085737;28;20845;-81
2023/05/06 04:11:11;;;;;;;16.50;15.97;;;15.30;1.00;;;;;;5081233;28;20485;-82
2023/05/06 04:13:39;;;;;;;16.73;16.20;;;15.20;1.00;;;;;;5062706;28;20470;-82
2023/05/06 04:16:09;;;;;;;17.77;16.60;;;15.10;42.10;;;;;;5065156;28;20826;-82
2023/05/06 04:18:38;;;;;;;16.40;15.80;;;15.00;99.90;;;;;;5076548;28;20542;-81
2023/05/06 04:21:06;;;;;;;17.33;16.57;;;15.10;99.90;;;;;;5076862;28;20477;-81
2023/05/06 04:23:34;;;;;;;17.30;16.60;;;15.10;1.00;;;;;;5066375;28;20460;-82
2023/05/06 04:26:03;;;;;;;16.40;15.87;;;15.10;1.00;;;;;;5078400;28;20949;-82
2023/05/06 04:28:31;;;;;;;16.77;16.27;;;15.10;1.00;;;;;;5079472;28;21042;-82
2023/05/06 04:31:01;;;;;;;17.07;16.47;;;15.00;99.90;;;;;;5079901;28;20481;-82
2023/05/06 04:33:31;;;;;;;16.93;16.33;;;15.00;82.90;;;;;;5080081;28;20864;-82
2023/05/06 04:35:59;;;;;;;17.13;16.33;;;15.00;99.90;;;;;;5058510;28;20462;-82
2023/05/06 04:38:30;;;;;;;17.53;16.87;;;15.00;99.90;;;;;;5078147;28;20453;-82
2023/05/06 04:40:59;;;;;;;17.87;17.17;;;15.00;99.90;;;;;;5078125;28;21705;-82
2023/05/06 04:43:27;;;;;;;18.20;17.50;;;15.00;1.00;;;;;;5081405;28;21038;-82
2023/05/06 04:45:56;;;;;;;17.50;16.90;;;15.00;99.90;;;;;;5079051;28;20461;-82
2023/05/06 04:48:25;;;;;;;17.50;16.80;;;15.00;1.00;;;;;;5081511;28;20457;-81
2023/05/06 04:50:54;;;;;;;17.93;17.27;;;15.00;99.90;;;;;;5076075;28;21025;-82
2023/05/06 04:53:22;;;;;;;17.77;17.17;;;15.00;99.90;;;;;;5077894;28;20481;-82
2023/05/06 04:55:50;;;;;;;17.93;17.23;;;15.10;99.90;;;;;;5078880;28;20522;-81
2023/05/06 04:58:19;;;;;;;18.33;17.63;;;15.10;1.00;;;;;;5079494;28;20474;-81
2023/05/06 05:00:47;;;;;;;18.10;17.40;;;15.10;1.00;;;;;;5082244;28;20505;-81
2023/05/06 05:03:15;;;;;;;17.60;17.00;;;15.20;99.90;;;;;;5082245;28;20502;-81
2023/05/06 05:05:43;;;;;;;18.33;17.53;;;15.20;99.90;;;;;;5081179;28;21335;-82
2023/05/06 05:08:13;;;;;;;18.27;17.67;;;15.20;1.00;;;;;;5079836;28;20461;-82
2023/05/06 05:10:42;;;;;;;18.10;17.50;;;15.30;99.90;;;;;;5075521;28;20485;-82
2023/05/06 05:13:10;;;;;;;18.50;17.70;;;15.20;99.90;;;;;;5078271;28;20457;-83
2023/05/06 05:15:38;;;;;;;18.90;18.17;;;15.20;99.90;;;;;;5078389;28;21121;-83
2023/05/06 05:18:06;;;;;;;19.10;18.33;;;15.30;99.90;;;;;;5078847;28;20450;-82
2023/05/06 05:20:35;;;;;;;19.83;18.90;;;15.30;99.90;;;;;;5074956;28;20595;-83
2023/05/06 05:23:03;;;;;;;18.70;17.90;;;15.30;99.90;;;;;;5079409;28;21036;-83
2023/05/06 05:25:33;;;;;;;18.83;18.13;;;15.30;99.90;;;;;;5079912;28;20464;-82
2023/05/06 05:28:01;;;;;;;19.00;18.20;;;15.30;1.00;;;;;;5081230;28;20472;-83
2023/05/06 05:30:29;;;;;;;18.80;18.00;;;15.30;99.90;;;;;;5079596;28;20460;-83
2023/05/06 05:32:57;;;;;;;18.90;18.10;;;15.30;99.90;;;;;;5073292;28;20449;-83
2023/05/06 05:35:26;;;;;;;18.40;17.70;;;15.30;1.00;;;;;;5080271;28;20481;-83
2023/05/06 05:37:54;;;;;;;18.80;18.10;;;15.40;1.00;;;;;;5079305;28;20498;-82
2023/05/06 05:40:23;;;;;;;19.50;18.40;;;15.30;99.90;;;;;;5056942;28;20904;-81
2023/05/06 05:42:52;;;;;;;18.00;17.30;;;15.40;1.00;;;;;;5077344;28;20466;-82
2023/05/06 05:45:21;;;;;;;18.37;17.47;;;15.40;84.80;;;;;;5080229;28;20466;-82
2023/05/06 05:47:49;;;;;;;18.57;17.67;;;15.40;99.90;;;;;;5079600;28;20456;-81
2023/05/06 05:50:17;;;;;;;17.87;17.17;;;15.50;94.50;;;;;;5078820;28;20457;-81
2023/05/06 05:52:45;;;;;;;19.20;18.20;;;15.50;38.70;;;;;;5078658;28;20488;-81
2023/05/06 05:55:15;;;;;;;17.87;17.27;;;15.70;89.90;;;;;;5060691;28;20487;-81
2023/05/06 05:57:43;;;;;;;17.93;17.33;;;15.80;61.20;;;;;;5062047;28;21861;-81
2023/05/06 06:00:14;;;;;;;18.00;17.00;;;16.00;99.90;;;;;;5072795;28;20515;-79
2023/05/06 06:02:42;;;;;;;17.20;16.60;;;16.10;99.90;;;;;;5074274;28;20491;-81
2023/05/06 06:05:10;;;;;;;18.43;17.53;;;16.20;1.00;;;;;;5077714;28;20448;-81
2023/05/06 06:07:38;;;;;;;17.63;17.07;;;16.30;99.90;;;;;;5078343;28;20833;-82
2023/05/06 06:10:08;;;;;;;17.77;17.10;;;16.30;95.20;;;;;;5076574;28;20458;-81
2023/05/06 06:12:36;;;;;;;17.63;16.93;;;16.40;1.00;;;;;;5079003;28;20469;-82
2023/05/06 06:15:05;;;;;;;17.70;16.90;;;16.40;99.90;;;;;;5058774;28;20524;-83
2023/05/06 06:17:34;;;;;;;18.37;17.57;;;16.40;99.90;;;;;;5078172;28;21137;-81
2023/05/06 06:20:03;;;;;;;18.00;17.30;;;16.50;99.90;;;;;;5076420;28;20566;-81
2023/05/06 06:22:32;;;;;;;18.13;17.50;;;16.50;99.90;;;;;;5075492;28;20461;-84
2023/05/06 06:25:00;;;;;;;17.50;16.80;;;16.60;1.00;;;;;;5078400;28;20852;-83
2023/05/06 06:27:28;;;;;;;17.50;17.00;;;16.70;1.00;;;;;;5068404;28;20447;-83
2023/05/06 06:29:56;;;;;;;17.70;17.00;;;16.80;1.00;;;;;;5077151;28;20463;-82
2023/05/06 06:32:25;;;;;;;17.83;17.23;;;16.90;99.90;;;;;;5078364;28;20831;-82
2023/05/06 06:34:54;;;;;;;18.20;17.20;;;17.00;99.90;;;;;;5062190;28;20484;-83
2023/05/06 06:37:23;;;;;;;17.73;17.13;;;17.10;99.90;;;;;;5065945;28;20452;-81
2023/05/06 06:39:51;;;;;;;18.10;17.30;;;17.30;77.20;;;;;;5084197;28;20456;-83
2023/05/06 06:42:19;;;;;;;17.70;17.10;;;17.40;59.30;;;;;;5082332;28;20531;-82
2023/05/06 06:44:47;;;;;;;18.03;17.43;;;17.60;1.00;;;;;;5079748;28;20463;-80
2023/05/06 06:47:15;;;;;;;17.70;17.00;;;17.70;99.90;;;;;;5072126;28;20462;-82
2023/05/06 06:49:43;;;;;;;19.90;19.10;;;17.80;1.00;;;;;;5079127;28;20457;-83
2023/05/06 06:52:13;;;;;;;18.97;17.80;;;17.90;99.90;;;;;;5063696;28;20482;-83
2023/05/06 06:54:41;;;;;;;20.30;19.30;;;18.00;99.90;;;;;;5059243;28;20486;-83
2023/05/06 06:57:09;;;;;;;17.47;16.87;;;18.10;99.90;;;;;;5078501;28;20459;-83
2023/05/06 06:59:38;;;;;;;17.70;17.00;;;18.10;99.90;;;;;;5077125;28;20449;-82
2023/05/06 07:02:06;;;;;;;18.50;17.50;;;18.20;40.50;;;;;;5074836;28;20465;-83
2023/05/06 07:04:34;;;;;;;17.67;16.90;;;18.20;59.80;;;;;;5080778;28;20461;-83
2023/05/06 07:07:02;;;;;;;17.60;17.00;;;18.10;1.00;;;;;;5076846;28;20842;-80
2023/05/06 07:09:32;;;;;;;17.47;16.90;;;18.00;1.00;;;;;;5073670;28;21133;-84
2023/05/06 07:12:02;;;;;;;17.13;16.63;;;18.10;2.70;;;;;;5076758;28;20484;-82
2023/05/06 07:14:30;;;;;;;18.13;17.43;;;18.10;49.70;;;;;;5080128;28;20482;-82
2023/05/06 07:16:59;;;;;;;17.63;17.03;;;18.10;6.60;;;;;;5076365;28;20461;-82
2023/05/06 07:19:27;;;;;;;16.50;16.00;;;18.20;79.00;;;;;;5078490;28;20457;-82
2023/05/06 07:21:56;;;;;;;17.23;16.57;;;18.30;1.00;;;;;;5078109;28;20465;-82
2023/05/06 07:24:24;;;;;;;16.50;16.10;;;18.30;1.00;;;;;;5076730;28;20832;-83
2023/05/06 07:26:54;;;;;;;16.60;16.10;;;18.30;1.00;;;;;;5076396;28;20446;-84
2023/05/06 07:29:22;;;;;;;16.50;16.03;;;18.40;1.00;;;;;;5076984;28;20856;-84
2023/05/06 07:31:50;;;;;;;17.00;16.40;;;18.50;1.00;;;;;;5073715;28;20489;-83
2023/05/06 07:34:19;;;;;;;17.10;16.60;;;18.50;1.00;;;;;;5075325;28;21024;-84
2023/05/06 07:36:49;;;;;;;16.10;15.60;;;18.60;1.00;;;;;;5072882;28;20445;-80
2023/05/06 07:39:17;;;;;;;17.10;16.33;;;18.60;1.00;;;;;;5071957;28;20222;-82
2023/05/06 07:41:46;;;;;;;17.37;16.87;;;18.50;1.00;;;;;;5082447;28;20484;-83
2023/05/06 07:44:16;;;;;;;17.00;16.37;;;18.10;1.00;;;;;;5067412;28;20545;-84
2023/05/06 07:46:44;;;;;;;16.90;16.37;;;18.20;1.00;;;;;;5079185;28;20499;-82
2023/05/06 07:49:13;;;;;;;16.90;16.40;;;18.40;1.00;;;;;;5057863;28;20446;-81
2023/05/06 07:51:42;;;;;;;16.93;16.43;;;18.40;1.00;;;;;;5072633;28;20482;-83
2023/05/06 07:54:11;;;;;;;16.80;16.10;;;18.30;1.00;;;;;;5075385;28;20454;-85
2023/05/06 07:56:39;;;;;;;16.60;15.93;;;18.30;1.00;;;;;;5078702;28;20481;-84
2023/05/06 07:59:07;;;;;;;16.70;16.10;;;18.30;1.00;;;;;;5077060;28;20444;-81
2023/05/06 08:01:37;;;;;;;16.57;15.80;;;18.30;1.00;;;;;;5075183;28;20232;-82
2023/05/06 08:04:06;;;;;;;16.23;15.77;;;18.40;1.00;;;;;;5076018;28;20656;-83
2023/05/06 08:06:34;;;;;;;16.80;16.30;;;18.50;1.00;;;;;;5077328;28;20454;-83
2023/05/06 08:09:02;;;;;;;17.17;16.57;;;18.40;1.00;;;;;;5070530;28;20469;-85
2023/05/06 08:11:31;;;;;;;16.83;16.10;;;18.50;1.00;;;;;;5070964;28;20481;-83
2023/05/06 08:13:59;;;;;;;17.10;16.40;;;18.60;1.00;;;;;;5055018;28;20465;-83
2023/05/06 08:16:27;;;;;;;16.00;15.40;;;18.60;1.00;;;;;;5074049;28;20481;-84
2023/05/06 08:18:57;;;;;;;16.57;16.00;;;18.60;1.00;;;;;;5078797;28;20462;-84
2023/05/06 08:21:26;;;;;;;17.60;16.67;;;18.50;1.00;;;;;;5073064;28;20484;-84
2023/05/06 08:23:54;;;;;;;16.70;16.00;;;18.40;1.00;;;;;;5076044;28;20454;-84
2023/05/06 08:26:23;;;;;;;17.17;16.53;;;18.50;1.00;;;;;;5060317;28;20481;-84
2023/05/06 08:28:51;;;;;;;16.50;16.00;;;18.60;1.00;;;;;;5073194;28;20813;-83
2023/05/06 08:31:19;;;;;;;16.50;16.00;;;18.50;1.00;;;;;;5072339;28;20474;-80
2023/05/06 08:33:48;;;;;;;16.60;16.10;;;18.50;1.00;;;;;;5075778;28;20929;-85
2023/05/06 08:36:17;;;;;;;16.70;16.20;;;18.40;1.00;;;;;;5076292;28;21037;-84
2023/05/06 08:38:49;;;;;;;16.80;16.27;;;18.40;1.00;;;;;;5065013;28;20492;-81
2023/05/06 08:41:20;;;;;;;16.00;15.60;;;18.50;1.00;;;;;;5075058;28;20478;-80
2023/05/06 08:43:49;;;;;;;16.07;15.57;;;18.50;1.00;;;;;;5080398;28;20456;-82
2023/05/06 08:46:18;;;;;;;16.00;15.50;;;18.50;1.00;;;;;;5067854;28;20476;-85
2023/05/06 08:48:46;;;;;;;16.00;15.60;;;18.50;1.00;;;;;;5079693;28;20464;-85
2023/05/06 08:51:17;;;;;;;16.10;15.40;;;18.60;1.00;;;;;;5085442;28;20480;-84
2023/05/06 08:53:49;;;;;;;15.10;14.80;;;18.60;99.90;;;;;;5082345;28;20976;-84
2023/05/06 08:56:18;;;;;;;15.70;15.20;;;18.60;99.90;;;;;;5087233;28;20546;-84
2023/05/06 08:58:47;;;;;;;17.53;15.97;;;18.70;99.90;;;;;;5086837;28;20519;-83
2023/05/06 09:01:15;;;;;;;15.87;15.47;;;18.70;99.90;;;;;;5076395;28;20884;-84
2023/05/06 09:03:44;;;;;;;17.00;16.40;;;18.80;99.90;;;;;;5063661;28;20462;-84
2023/05/06 09:06:12;;;;;;;15.53;15.03;;;18.90;99.90;;;;;;5061998;28;20457;-84
2023/05/06 09:08:40;;;;;;;15.97;15.57;;;18.90;99.90;;;;;;5083197;28;20465;-83
2023/05/06 09:11:24;;;;;;;15.47;15.00;;;19.10;99.90;;;;;;5081719;28;20500;-85
2023/05/06 09:14:09;;;;;;;15.57;15.13;;;19.00;99.90;;;;;;5074181;28;20493;-85
2023/05/06 09:16:38;;;;;;;15.33;14.93;;;19.10;99.90;;;;;;5057062;28;20502;-83
2023/05/06 09:19:07;;;;;;;16.00;15.50;;;19.20;1.00;;;;;;5078613;28;20447;-85
2023/05/06 09:21:37;;;;;;;15.20;14.80;;;19.30;1.00;;;;;;5061706;28;20478;-85
2023/05/06 09:24:07;;;;;;;15.47;15.07;;;19.40;99.90;;;;;;5064312;28;20455;-83
2023/05/06 09:26:40;;;;;;;15.53;15.13;;;19.40;99.90;;;;;;5082860;28;20456;-87
2023/05/06 09:29:09;;;;;;;15.10;14.50;;;19.40;99.90;;;;;;5075256;28;20458;-87
2023/05/06 09:31:41;;;;;;;14.53;14.13;;;19.50;99.90;;;;;;5081310;28;20528;-86
2023/05/06 09:34:10;;;;;;;15.23;14.73;;;19.50;99.90;;;;;;5062628;28;20462;-85
2023/05/06 09:36:38;;;;;;;15.30;14.47;;;19.60;99.90;;;;;;5079365;28;20482;-85
2023/05/06 09:39:07;;;;;;;14.30;13.90;;;19.60;99.90;;;;;;5080815;28;20795;-88
2023/05/06 09:41:37;;;;;;;14.10;13.80;;;19.60;99.90;;;;;;5078582;28;20493;-85
2023/05/06 09:44:06;;;;;;;14.43;14.02;;;19.60;99.90;;;;;;5079011;28;20436;-88
2023/05/06 09:46:34;;;;;;;13.67;13.27;;;19.50;99.90;;;;;;5060386;28;20184;-86
2023/05/06 09:49:03;;;;;;;13.53;13.23;;;19.50;99.90;;;;;;5069875;28;20457;-93
2023/05/06 09:51:32;;;;;;;13.77;13.47;;;19.50;99.90;;;;;;5070482;28;20489;-84
2023/05/06 09:54:01;;;;;;;13.90;13.60;;;19.60;99.90;;;;;;5074949;28;20461;-86
2023/05/06 09:56:31;;;;;;;13.80;13.50;;;19.60;99.90;;;;;;5081605;28;20514;-85
2023/05/06 09:59:03;;;;;;;14.30;13.80;;;19.70;99.90;;;;;;5068377;28;20480;-86
2023/05/06 10:01:33;;;;;;;13.97;13.60;;;19.80;99.90;;;;;;5078664;28;20466;-85
2023/05/06 10:04:08;;;;;;;13.90;13.40;;;19.80;99.90;;;;;;5083497;28;20453;-85
2023/05/06 10:06:40;;;;;;;14.17;13.67;;;19.80;99.90;;;;;;5078079;28;20446;-85
2023/05/06 10:09:09;;;;;;;14.33;14.00;;;19.80;99.90;;;;;;5057940;28;20454;-85
2023/05/06 10:11:38;;;;;;;14.57;14.10;;;19.80;99.90;;;;;;5064425;28;20466;-83
2023/05/06 10:14:09;;;;;;;14.70;14.30;;;19.90;99.90;;;;;;5081455;28;20496;-85
2023/05/06 10:16:39;;;;;;;14.17;13.77;;;20.10;99.90;;;;;;5082903;28;21056;-86
2023/05/06 10:19:08;;;;;;;14.10;13.60;;;20.20;99.90;;;;;;5082971;28;20446;-85
2023/05/06 10:21:41;;;;;;;14.60;14.30;;;20.20;99.90;;;;;;5086400;28;20481;-85
2023/05/06 10:24:13;;;;;;;13.63;13.33;;;20.20;99.90;;;;;;5085611;28;20545;-86
2023/05/06 10:26:45;;;;;;;14.13;13.83;;;20.30;99.90;;;;;;5065844;28;20446;-85
2023/05/06 10:29:15;;;;;;;13.20;12.70;;;20.30;99.90;;;;;;5084930;28;20446;-85
2023/05/06 10:31:49;;;;;;;12.87;12.37;;;20.30;99.90;;;;;;5086030;28;20489;-81
2023/05/06 10:34:20;;;;;;;13.37;13.07;;;20.30;99.90;;;;;;5084911;28;20491;-86
2023/05/06 10:36:50;;;;;;;13.40;13.10;;;20.30;99.90;;;;;;5085074;28;20509;-83
2023/05/06 10:39:18;;;;;;;13.43;13.03;;;20.40;99.90;;;;;;5080034;28;20460;-85
2023/05/06 10:41:47;;;;;;;13.17;12.87;;;20.40;99.90;;;;;;5079878;28;20841;-85
2023/05/06 10:44:17;;;;;;;13.70;13.20;;;20.50;99.90;;;;;;5065145;28;20461;-84
2023/05/06 10:46:59;;;;;;;12.53;12.27;;;20.40;99.90;;;;;;5083328;28;20788;-84
2023/05/06 10:49:28;;;;;;;13.07;12.67;;;20.50;99.90;;;;;;5085418;28;20966;-84
2023/05/06 10:52:13;;;;;;;12.00;11.40;;;20.50;99.90;;;;;;5085578;28;20489;-84
2023/05/06 10:54:50;;;;;;;13.23;12.80;;;20.50;99.90;;;;;;5083173;28;20459;-87
2023/05/06 10:57:19;;;;;;;12.90;12.47;;;20.60;99.90;;;;;;5080807;28;20556;-85
2023/05/06 10:59:49;;;;;;;13.10;12.70;;;20.60;99.90;;;;;;5085990;28;20455;-86
2023/05/06 11:02:20;;;;;;;14.27;13.77;;;20.80;99.90;;;;;;5080237;28;20508;-84
2023/05/06 11:04:52;;;;;;;14.00;13.57;;;20.90;99.90;;;;;;5079604;28;20454;-89
2023/05/06 11:07:24;;;;;;;12.80;12.50;;;21.00;99.90;;;;;;5077703;28;20458;-88
2023/05/06 11:09:58;;;;;;;14.20;13.90;;;21.10;99.90;;;;;;5070537;28;20458;-83
2023/05/06 11:12:44;;;;;;;13.90;13.50;;;21.10;99.90;;;;;;5080252;28;20494;-83
2023/05/06 11:15:24;;;;;;;13.97;13.53;;;21.10;99.90;;;;;;5077766;28;20291;-88
2023/05/06 11:17:54;;;;;;;13.93;13.63;;;21.10;99.90;;;;;;5081319;28;20470;-82
2023/05/06 11:20:24;;;;;;;14.20;13.80;;;21.00;99.90;;;;;;5080724;28;20457;-80
2023/05/06 11:22:53;;;;;;;14.27;13.97;;;21.00;99.90;;;;;;5082242;28;20454;-84
2023/05/06 11:25:40;;;;;;;13.57;13.27;;;21.00;99.90;;;;;;5082080;28;20459;-84
2023/05/06 11:28:10;;;;;;;13.20;12.80;;;20.90;99.90;;;;;;5085017;28;20455;-83
2023/05/06 11:30:42;;;;;;;12.37;12.07;;;20.80;99.90;;;;;;5083998;28;20482;-86
2023/05/06 11:33:19;;;;;;;12.87;12.30;;;20.90;99.90;;;;;;5081496;28;21073;-83
2023/05/06 11:35:48;;;;;;;12.73;12.43;;;20.90;99.90;;;;;;5070022;28;20488;-83
2023/05/06 11:38:16;;;;;;;12.50;12.30;;;21.00;99.90;;;;;;5086517;28;20487;-86
2023/05/06 11:40:44;;;;;;;12.50;12.20;;;21.10;99.90;;;;;;5078783;28;20574;-88
2023/05/06 11:43:14;;;;;;;12.77;12.47;;;21.00;99.90;;;;;;5079168;28;20843;-84
2023/05/06 11:45:45;;;;;;;13.30;12.90;;;21.10;99.90;;;;;;5078141;28;20962;-84
2023/05/06 11:48:13;;;;;;;12.93;12.63;;;21.10;99.90;;;;;;5075342;28;20563;-82
2023/05/06 11:50:46;;;;;;;12.32;12.02;;;21.10;99.90;;;;;;5080614;28;20476;-81
2023/05/06 11:53:17;;;;;;;11.90;11.50;;;20.90;99.90;;;;;;5075579;28;20398;-85
2023/05/06 11:55:47;;;;;;;12.40;12.10;;;21.00;99.90;;;;;;5075846;28;20992;-86
2023/05/06 11:58:16;;;;;;;11.67;11.37;;;21.00;99.90;;;;;;5079554;28;20503;-86
2023/05/06 12:00:50;;;;;;;11.60;11.30;;;20.90;99.90;;;;;;5078915;28;20477;-86
2023/05/06 12:03:20;;;;;;;12.13;11.67;;;20.80;99.90;;;;;;5079217;28;20460;-88
2023/05/06 12:05:50;;;;;;;13.90;13.40;;;20.80;99.90;;;;;;5080835;28;20457;-82
2023/05/06 12:08:22;;;;;;;13.70;13.20;;;20.90;99.90;;;;;;5078286;28;20447;-82
2023/05/06 12:10:57;;;;;;;12.70;12.40;;;21.00;99.90;;;;;;5078611;28;20482;-84
2023/05/06 12:13:27;;;;;;;13.23;12.60;;;21.00;99.90;;;;;;5077394;28;20463;-84
2023/05/06 12:15:59;;;;;;;12.90;12.30;;;21.10;99.90;;;;;;5074953;28;20463;-84
2023/05/06 12:18:27;;;;;;;12.50;12.30;;;21.20;99.90;;;;;;5073550;28;20529;-88
2023/05/06 12:20:57;;;;;;;12.70;12.50;;;21.30;99.90;;;;;;5073652;28;20639;-86
2023/05/06 12:23:25;;;;;;;12.60;12.20;;;21.30;99.90;;;;;;5081468;28;20970;-84
2023/05/06 12:26:01;;;;;;;12.83;12.43;;;21.30;99.90;;;;;;5085381;28;20442;-85
2023/05/06 12:28:31;;;;;;;13.27;12.77;;;21.30;99.90;;;;;;5083409;28;20908;-85
2023/05/06 12:31:09;;;;;;;12.40;12.10;;;21.20;99.90;;;;;;5081486;28;21066;-84
2023/05/06 12:33:45;;;;;;;12.90;12.60;;;20.90;99.90;;;;;;5089176;28;20536;-86
2023/05/06 12:36:13;;;;;;;12.30;12.00;;;20.80;99.90;;;;;;5082563;28;20825;-85
2023/05/06 12:38:51;;;;;;;12.77;12.47;;;20.80;99.90;;;;;;5081943;28;20486;-84
2023/05/06 12:41:20;;;;;;;12.40;12.10;;;20.70;99.90;;;;;;5064972;28;20488;-84
2023/05/06 12:43:48;;;;;;;12.50;12.10;;;20.50;99.90;;;;;;5081165;28;20458;-84